createdAt,value
2022-08-27T00:03:12.409Z,79.65
2022-08-27T00:08:14.232Z,79.45
2022-08-27T00:13:16.175Z,79.08
2022-08-27T00:18:22.449Z,78.45
2022-08-27T00:23:24.673Z,78.99
2022-08-27T00:28:29.172Z,79.17
2022-08-27T00:33:31.009Z,78.96
2022-08-27T00:38:32.990Z,78.00
2022-08-27T00:43:48.322Z,77.99
2022-08-27T00:48:52.665Z,77.82
2022-08-27T00:53:56.679Z,77.78
2022-08-27T00:58:58.568Z,77.69
2022-08-27T01:04:03.717Z,77.75
2022-08-27T01:09:10.047Z,77.84
2022-08-27T01:14:12.842Z,77.45
2022-08-27T01:19:46.782Z,77.05
2022-08-27T01:24:52.001Z,76.71
2022-08-27T01:29:53.900Z,76.39
2022-08-27T01:34:57.005Z,76.33
2022-08-27T01:39:59.142Z,76.36
2022-08-27T01:45:13.257Z,77.18
2022-08-27T01:50:18.750Z,77.18
2022-08-27T01:55:24.973Z,78.15
2022-08-27T02:00:30.404Z,78.07
2022-08-27T02:05:32.716Z,78.56
2022-08-27T02:10:48.381Z,79.12
2022-08-27T02:15:50.388Z,79.19
2022-08-27T02:20:52.275Z,78.30
2022-08-27T02:25:54.206Z,78.69
2022-08-27T02:30:56.091Z,79.18
2022-08-27T02:35:57.772Z,79.08
2022-08-27T02:40:59.492Z,79.63
2022-08-27T02:46:01.647Z,79.50
2022-08-27T02:51:06.061Z,79.87
2022-08-27T02:56:08.129Z,79.71
2022-08-27T03:01:13.681Z,79.58
2022-08-27T03:06:16.194Z,79.64
2022-08-27T03:11:18.060Z,79.49
2022-08-27T03:16:19.902Z,79.79
2022-08-27T03:21:26.499Z,79.65
2022-08-27T03:26:29.528Z,79.96
2022-08-27T03:31:31.421Z,80.09
2022-08-27T03:36:33.456Z,79.79
2022-08-27T03:41:39.956Z,80.67
2022-08-27T03:46:56.292Z,80.36
2022-08-27T03:51:58.212Z,80.93
2022-08-27T03:56:59.883Z,80.77
2022-08-27T04:02:02.405Z,81.13
2022-08-27T04:07:04.941Z,81.03
2022-08-27T04:12:06.760Z,80.79
2022-08-27T04:17:08.514Z,80.91
2022-08-27T04:22:10.193Z,81.22
2022-08-27T04:27:14.398Z,81.13
2022-08-27T04:32:16.100Z,81.15
2022-08-27T04:37:17.899Z,81.23
2022-08-27T04:42:25.429Z,81.27
2022-08-27T04:47:27.200Z,81.25
2022-08-27T04:52:29.051Z,81.22
2022-08-27T04:57:30.732Z,81.72
2022-08-27T05:02:32.546Z,81.57
2022-08-27T05:07:34.509Z,81.56
2022-08-27T05:12:36.137Z,81.61
2022-08-27T05:17:37.779Z,81.95
2022-08-27T05:22:39.671Z,82.32
2022-08-27T05:27:41.566Z,82.97
2022-08-27T05:32:43.608Z,83.10
2022-08-27T05:37:45.984Z,83.59
2022-08-27T05:42:51.103Z,83.83
2022-08-27T05:47:53.165Z,83.75
2022-08-27T05:52:54.855Z,84.28
2022-08-27T05:57:56.548Z,84.51
2022-08-27T06:02:58.226Z,84.91
2022-08-27T06:08:00.083Z,86.46
2022-08-27T06:13:03.480Z,85.86
2022-08-27T06:18:05.325Z,86.04
2022-08-27T06:23:07.343Z,86.06
2022-08-27T06:28:09.644Z,85.89
2022-08-27T06:33:11.397Z,85.43
2022-08-27T06:38:13.256Z,83.97
2022-08-27T06:43:14.889Z,83.15
2022-08-27T06:48:17.348Z,82.33
2022-08-27T06:53:19.337Z,81.67
2022-08-27T06:58:26.652Z,80.03
2022-08-27T07:03:28.542Z,79.82
2022-08-27T07:08:30.376Z,78.69
2022-08-27T07:13:32.175Z,76.73
2022-08-27T07:18:34.433Z,73.20
2022-08-27T07:23:37.624Z,72.62
2022-08-27T07:28:40.901Z,73.04
2022-08-27T07:33:50.620Z,73.87
2022-08-27T07:39:01.203Z,72.79
2022-08-27T07:44:26.068Z,72.75
2022-08-27T07:49:31.227Z,72.08
2022-08-27T07:54:33.320Z,71.92
2022-08-27T07:59:35.489Z,73.06
2022-08-27T08:04:37.173Z,72.03
2022-08-27T08:09:38.833Z,71.82
2022-08-27T08:14:40.581Z,72.32
2022-08-27T08:19:47.439Z,72.23
2022-08-27T08:24:59.426Z,72.00
2022-08-27T08:30:01.517Z,71.66
2022-08-27T08:35:05.490Z,71.99
2022-08-27T08:40:08.081Z,71.29
2022-08-27T08:45:14.001Z,70.88
2022-08-27T08:50:23.868Z,70.18
2022-08-27T08:55:43.800Z,69.95
2022-08-27T09:00:48.910Z,70.00
2022-08-27T09:06:05.419Z,69.54
2022-08-27T09:11:34.170Z,69.62
2022-08-27T09:16:36.994Z,69.09
2022-08-27T09:21:49.464Z,68.40
2022-08-27T09:26:52.057Z,67.62
2022-08-27T09:31:59.144Z,66.32
2022-08-27T09:37:24.238Z,66.50
2022-08-27T09:42:41.399Z,63.85
2022-08-27T09:47:49.436Z,65.52
2022-08-27T09:52:55.344Z,64.54
2022-08-27T09:57:57.274Z,65.52
2022-08-27T10:03:00.813Z,64.18
2022-08-27T10:08:10.878Z,63.79
2022-08-27T10:13:28.880Z,63.57
2022-08-27T10:18:48.987Z,63.23
2022-08-27T10:24:05.894Z,61.36
2022-08-27T10:29:19.864Z,61.73
2022-08-27T10:34:50.847Z,59.43
2022-08-27T10:40:14.424Z,61.82
2022-08-27T10:45:49.093Z,61.68
2022-08-27T10:51:04.808Z,61.33
2022-08-27T10:56:28.545Z,62.18
2022-08-27T11:01:48.445Z,62.08
2022-08-27T11:06:56.896Z,61.84
2022-08-27T11:12:18.418Z,60.46
2022-08-27T11:17:44.021Z,58.70
2022-08-27T11:22:51.034Z,59.79
2022-08-27T11:27:56.147Z,59.66
2022-08-27T11:33:14.217Z,57.35
2022-08-27T11:38:27.525Z,57.89
2022-08-27T11:43:35.402Z,59.02
2022-08-27T11:48:41.853Z,59.15
2022-08-27T11:53:57.500Z,57.65
2022-08-27T11:59:23.700Z,57.02
2022-08-27T12:04:31.511Z,58.03
2022-08-27T12:10:11.407Z,57.38
2022-08-27T12:15:27.548Z,57.60
2022-08-27T12:20:36.252Z,58.48
2022-08-27T12:25:38.493Z,55.88
2022-08-27T12:30:52.008Z,57.04
2022-08-27T12:35:56.431Z,58.23
2022-08-27T12:41:04.012Z,58.79
2022-08-27T12:46:12.810Z,58.23
2022-08-27T12:51:23.206Z,58.32
2022-08-27T12:56:37.313Z,55.43
2022-08-27T13:02:04.416Z,56.46
2022-08-27T13:07:06.218Z,56.87
2022-08-27T13:12:17.001Z,55.57
2022-08-27T13:17:22.657Z,56.28
2022-08-27T13:22:29.112Z,55.44
2022-08-27T13:27:33.809Z,56.77
2022-08-27T13:32:37.642Z,56.45
2022-08-27T13:37:44.968Z,56.32
2022-08-27T13:42:46.996Z,57.57
2022-08-27T13:47:49.917Z,57.58
2022-08-27T13:53:12.084Z,57.33
2022-08-27T13:58:19.557Z,57.67
2022-08-27T14:03:32.164Z,58.50
2022-08-27T14:08:36.053Z,58.09
2022-08-27T14:13:41.125Z,57.91
2022-08-27T14:19:13.313Z,59.06
2022-08-27T14:24:15.247Z,59.12
2022-08-27T14:29:17.841Z,58.40
2022-08-27T14:34:26.697Z,59.27
2022-08-27T14:39:28.616Z,58.67
2022-08-27T14:44:31.091Z,59.02
2022-08-27T14:49:37.644Z,59.05
2022-08-27T14:54:41.042Z,58.92
2022-08-27T14:59:42.854Z,58.28
2022-08-27T15:04:47.257Z,57.51
2022-08-27T15:09:50.060Z,58.33
2022-08-27T15:14:51.748Z,58.34
2022-08-27T15:19:53.357Z,58.45
2022-08-27T15:24:57.109Z,57.66
2022-08-27T15:29:59.902Z,59.38
2022-08-27T15:35:05.359Z,59.60
2022-08-27T15:40:08.137Z,59.88
2022-08-27T15:45:12.944Z,59.92
2022-08-27T15:50:14.868Z,60.33
2022-08-27T15:55:23.954Z,59.94
2022-08-27T16:00:26.977Z,60.41
2022-08-27T16:05:34.308Z,61.16
2022-08-27T16:10:36.949Z,61.32
2022-08-27T16:15:40.731Z,61.53
2022-08-27T16:20:42.725Z,62.07
2022-08-27T16:25:44.618Z,62.20
2022-08-27T16:30:47.567Z,62.10
2022-08-27T16:35:50.410Z,62.81
2022-08-27T16:40:54.643Z,62.95
2022-08-27T16:45:58.870Z,63.32
2022-08-27T16:51:01.120Z,63.82
2022-08-27T16:56:03.485Z,63.89
2022-08-27T17:01:08.568Z,63.35
2022-08-27T17:06:10.809Z,64.10
2022-08-27T17:11:16.353Z,64.01
2022-08-27T17:16:21.880Z,64.43
2022-08-27T17:21:29.149Z,65.18
2022-08-27T17:26:32.936Z,66.11
2022-08-27T17:31:37.189Z,66.34
2022-08-27T17:36:38.789Z,66.97
2022-08-27T17:41:44.065Z,66.99
2022-08-27T17:46:46.132Z,67.58
2022-08-27T17:51:49.493Z,67.77
2022-08-27T17:56:51.685Z,67.81
2022-08-27T18:01:53.815Z,68.77
2022-08-27T18:06:55.515Z,69.24
2022-08-27T18:11:58.403Z,69.68
2022-08-27T18:17:00.261Z,70.18
2022-08-27T18:22:02.141Z,70.09
2022-08-27T18:27:04.179Z,70.54
2022-08-27T18:32:06.377Z,70.18
2022-08-27T18:37:08.225Z,69.70
2022-08-27T18:42:11.903Z,70.16
2022-08-27T18:47:13.637Z,70.34
2022-08-27T18:52:22.803Z,71.07
2022-08-27T18:57:24.716Z,71.23
2022-08-27T19:02:27.535Z,72.02
2022-08-27T19:07:29.929Z,72.65
2022-08-27T19:12:32.020Z,72.90
2022-08-27T19:17:35.943Z,72.97
2022-08-27T19:22:38.342Z,73.20
2022-08-27T19:27:40.471Z,73.19
2022-08-27T19:32:42.821Z,73.57
2022-08-27T19:37:52.705Z,73.80
2022-08-27T19:42:55.292Z,74.13
2022-08-27T19:47:56.929Z,74.20
2022-08-27T19:52:58.941Z,74.76
2022-08-27T19:58:00.624Z,74.71
2022-08-27T20:03:02.462Z,74.93
2022-08-27T20:08:05.506Z,75.35
2022-08-27T20:13:07.986Z,76.01
2022-08-27T20:18:10.748Z,76.48
2022-08-27T20:23:13.133Z,76.44
2022-08-27T20:28:38.431Z,76.91
2022-08-27T20:33:37.343Z,76.06
2022-08-27T20:38:39.644Z,75.73
2022-08-27T20:43:41.361Z,71.91
2022-08-27T20:48:43.036Z,70.02
2022-08-27T20:53:44.885Z,71.22
2022-08-27T20:59:05.015Z,74.92
2022-08-27T21:04:06.665Z,75.98
2022-08-27T21:09:08.436Z,76.44
2022-08-27T21:14:10.057Z,77.14
2022-08-27T21:19:12.309Z,77.72
2022-08-27T21:24:14.433Z,77.65
2022-08-27T21:29:17.684Z,78.56
2022-08-27T21:34:19.325Z,78.94
2022-08-27T21:39:21.149Z,79.36
2022-08-27T21:44:22.776Z,79.78
2022-08-27T21:49:24.414Z,80.47
2022-08-27T21:54:26.613Z,80.22
2022-08-27T21:59:31.746Z,81.04
2022-08-27T22:04:33.996Z,81.23
2022-08-27T22:09:36.148Z,81.34
2022-08-27T22:14:38.936Z,81.66
2022-08-27T22:19:40.605Z,82.16
2022-08-27T22:24:42.416Z,82.64
2022-08-27T22:29:44.285Z,82.57
2022-08-27T22:34:46.117Z,83.47
2022-08-27T22:39:47.898Z,83.97
2022-08-27T22:44:49.535Z,85.12
2022-08-27T22:49:52.918Z,84.88
2022-08-27T22:54:55.203Z,84.60
2022-08-27T22:59:58.285Z,84.70
2022-08-27T23:05:03.511Z,84.33
2022-08-27T23:10:09.479Z,84.94
2022-08-27T23:15:11.650Z,84.34
2022-08-27T23:20:13.832Z,84.77
2022-08-27T23:25:34.448Z,86.57
2022-08-27T23:30:36.835Z,89.21
2022-08-27T23:35:38.820Z,90.29
2022-08-27T23:40:41.031Z,90.96
2022-08-27T23:45:43.509Z,90.10
2022-08-27T23:50:45.272Z,89.28
2022-08-27T23:55:47.185Z,88.92
